Big Glory — H9IF — position and weather

sailwx.info

Track history (hours):
 
Tides and Currents Weather Stations Pressure Air Temp Water Temp Dewpoint Dewpoint Depression Visibility Wind Speed Wind Dir Waves Ship Positions

Big Glory

Last reported at 2017-Jan-17 08:33 UTC. Time now 2017-Jan-19 23:37 UTC.
Position S 34°23' E 151°01'.

Length 190 m; draft 9.9 m.

Type: Ship. MMSI: 354285000.

Date/timePositionNaut miles runAvg speedWind from/ knotsBaromVisibWave heightAir tempDewpointWater temp
2017-Jan-17 08:33S 34°23' E 151°01'0 0.0
2017-Jan-16 23:24S 34°23' E 151°01'0 0.1
2017-Jan-16 22:33S 34°23' E 151°01'0 0.1
2017-Jan-16 21:33S 34°23' E 151°01'0 0.0
2017-Jan-16 20:06S 34°23' E 151°01'0 0.0
2017-Jan-16 18:21S 34°23' E 151°01'83 3.2
2017-Jan-15 16:29S 33°20' E 152°04'1212.5
2017-Jan-15 15:33S 33°10' E 152°12'1312.7
2017-Jan-15 14:33S 32°60' E 152°20'1312.6
2017-Jan-15 13:33S 32°49' E 152°29'1312.6
2017-Jan-15 12:33S 32°39' E 152°38'1312.5
2017-Jan-15 11:29S 32°28' E 152°46'26413.1
2017-Jan-14 15:19S 28°11' E 153°59'1114.0
2017-Jan-14 14:33S 28°00' E 154°00'1413.5
2017-Jan-14 13:33S 27°47' E 154°01'1413.5
2017-Jan-14 12:33S 27°33' E 154°02'1413.7
2017-Jan-14 11:33S 27°20' E 154°04'1413.3
2017-Jan-14 10:31S 27°06' E 154°04'1212.7
2017-Jan-14 09:33S 26°54' E 154°04'1312.7
2017-Jan-14 08:33S 26°41' E 154°04'1313.1
2017-Jan-14 07:33S 26°28' E 154°04'1413.9
2017-Jan-14 06:32S 26°14' E 154°04'1614.7
2017-Jan-14 05:27S 25°58' E 154°04'  
Track history (hours):
 
Tides and Currents Weather Stations Pressure Air Temp Water Temp Dewpoint Dewpoint Depression Visibility Wind Speed Wind Dir Waves Ship Positions

Big Glory

Last reported at 2017-Jan-17 08:33 UTC. Time now 2017-Jan-19 23:37 UTC.
Position S 34°23' E 151°01'.

Length 190 m; draft 9.9 m.

Type: Ship. MMSI: 354285000.

Date/timePositionNaut miles runAvg speedWind from/ knotsBaromVisibWave heightAir tempDewpointWater temp
2017-Jan-17 08:33S 34°23' E 151°01'0 0.0
2017-Jan-16 23:24S 34°23' E 151°01'0 0.1
2017-Jan-16 22:33S 34°23' E 151°01'0 0.1
2017-Jan-16 21:33S 34°23' E 151°01'0 0.0
2017-Jan-16 20:06S 34°23' E 151°01'0 0.0
2017-Jan-16 18:21S 34°23' E 151°01'83 3.2
2017-Jan-15 16:29S 33°20' E 152°04'1212.5
2017-Jan-15 15:33S 33°10' E 152°12'1312.7
2017-Jan-15 14:33S 32°60' E 152°20'1312.6
2017-Jan-15 13:33S 32°49' E 152°29'1312.6
2017-Jan-15 12:33S 32°39' E 152°38'1312.5
2017-Jan-15 11:29S 32°28' E 152°46'26413.1
2017-Jan-14 15:19S 28°11' E 153°59'1114.0
2017-Jan-14 14:33S 28°00' E 154°00'1413.5
2017-Jan-14 13:33S 27°47' E 154°01'1413.5
2017-Jan-14 12:33S 27°33' E 154°02'1413.7
2017-Jan-14 11:33S 27°20' E 154°04'1413.3
2017-Jan-14 10:31S 27°06' E 154°04'1212.7
2017-Jan-14 09:33S 26°54' E 154°04'1312.7
2017-Jan-14 08:33S 26°41' E 154°04'1313.1
2017-Jan-14 07:33S 26°28' E 154°04'1413.9
2017-Jan-14 06:32S 26°14' E 154°04'1614.7
2017-Jan-14 05:27S 25°58' E 154°04'  

Dump ship's entire track history